createdAt,value
2018-04-26T00:01:04.589Z,16.60
2018-04-26T00:03:30.839Z,16.20
2018-04-26T00:05:57.040Z,15.90
2018-04-26T00:08:23.256Z,15.80
2018-04-26T00:10:49.491Z,16.00
2018-04-26T00:13:15.695Z,16.10
2018-04-26T00:15:41.888Z,15.80
2018-04-26T00:18:08.067Z,16.40
2018-04-26T00:20:34.299Z,16.40
2018-04-26T00:23:00.495Z,16.50
2018-04-26T00:25:26.710Z,16.80
2018-04-26T00:27:52.923Z,16.50
2018-04-26T00:30:19.144Z,16.90
2018-04-26T00:32:45.314Z,17.00
2018-04-26T00:35:11.537Z,16.90
2018-04-26T00:37:37.707Z,16.60
2018-04-26T00:40:04.709Z,16.80
2018-04-26T00:42:31.589Z,16.80
2018-04-26T00:44:58.605Z,16.50
2018-04-26T00:47:24.836Z,16.50
2018-04-26T00:49:51.021Z,16.50
2018-04-26T00:52:17.229Z,16.20
2018-04-26T00:54:44.431Z,16.60
2018-04-26T00:57:11.396Z,16.30
2018-04-26T00:59:37.712Z,16.20
2018-04-26T01:02:04.755Z,16.40
2018-04-26T01:04:30.999Z,16.40
2018-04-26T01:06:57.974Z,16.00
2018-04-26T01:09:24.947Z,16.40
2018-04-26T01:11:51.151Z,16.40
2018-04-26T01:14:17.390Z,16.50
2018-04-26T01:16:43.665Z,16.30
2018-04-26T01:19:09.870Z,16.50
2018-04-26T01:21:36.936Z,16.40
2018-04-26T01:24:03.150Z,16.20
2018-04-26T01:26:29.343Z,16.10
2018-04-26T01:28:55.570Z,15.80
2018-04-26T01:31:21.762Z,15.90
2018-04-26T01:33:47.931Z,15.90
2018-04-26T01:36:32.555Z,15.50
2018-04-26T01:38:59.586Z,18.00
2018-04-26T01:41:25.835Z,16.20
2018-04-26T01:43:52.038Z,16.00
2018-04-26T01:46:18.922Z,15.70
2018-04-26T01:48:45.115Z,15.70
2018-04-26T01:51:11.325Z,15.60
2018-04-26T01:53:37.535Z,15.50
2018-04-26T01:56:03.660Z,15.20
2018-04-26T01:58:29.850Z,15.70
2018-04-26T02:00:56.814Z,15.90
2018-04-26T02:03:23.021Z,15.80
2018-04-26T02:05:49.978Z,15.60
2018-04-26T02:08:16.629Z,15.60
2018-04-26T02:10:42.825Z,15.70
2018-04-26T02:13:09.029Z,15.40
2018-04-26T02:15:35.205Z,15.30
2018-04-26T02:18:01.374Z,15.10
2018-04-26T02:20:27.575Z,15.60
2018-04-26T02:22:53.732Z,15.50
2018-04-26T02:25:19.914Z,15.60
2018-04-26T02:27:46.102Z,15.50
2018-04-26T02:30:14.215Z,15.70
2018-04-26T02:32:40.394Z,15.60
2018-04-26T02:35:06.624Z,15.70
2018-04-26T02:37:32.843Z,16.00
2018-04-26T02:39:59.840Z,15.90
2018-04-26T02:42:26.076Z,15.90
2018-04-26T02:44:52.286Z,15.90
2018-04-26T02:47:18.500Z,16.00
2018-04-26T02:49:44.747Z,16.00
2018-04-26T02:52:11.706Z,16.10
2018-04-26T02:54:37.926Z,16.10
2018-04-26T02:57:04.421Z,15.80
2018-04-26T02:59:30.651Z,15.20
2018-04-26T03:01:56.905Z,16.00
2018-04-26T03:04:23.144Z,16.10
2018-04-26T03:06:49.371Z,16.00
2018-04-26T03:09:15.909Z,16.20
2018-04-26T03:11:42.182Z,16.30
2018-04-26T03:14:09.135Z,16.50
2018-04-26T03:16:36.065Z,16.30
2018-04-26T03:19:02.594Z,16.30
2018-04-26T03:21:29.088Z,15.90
2018-04-26T03:23:55.359Z,16.20
2018-04-26T03:26:21.558Z,16.40
2018-04-26T03:28:47.769Z,16.50
2018-04-26T03:31:14.766Z,16.50
2018-04-26T03:33:40.956Z,16.50
2018-04-26T03:36:07.898Z,16.40
2018-04-26T03:38:34.856Z,16.40
2018-04-26T03:41:01.085Z,16.40
2018-04-26T03:43:27.316Z,16.40
2018-04-26T03:45:54.268Z,16.30
2018-04-26T03:48:20.471Z,16.20
2018-04-26T03:50:46.671Z,16.90
2018-04-26T03:53:12.873Z,16.20
2018-04-26T03:55:39.077Z,16.10
2018-04-26T03:58:05.334Z,16.30
2018-04-26T04:00:51.408Z,16.00
2018-04-26T04:03:36.114Z,16.00
2018-04-26T04:06:03.887Z,15.70
2018-04-26T04:08:30.085Z,16.00
2018-04-26T04:10:57.454Z,16.50
2018-04-26T04:13:23.628Z,16.50
2018-04-26T04:15:49.835Z,16.20
2018-04-26T04:18:16.044Z,16.20
2018-04-26T04:20:42.974Z,16.50
2018-04-26T04:23:09.139Z,16.40
2018-04-26T04:25:35.294Z,16.10
2018-04-26T04:28:01.539Z,15.90
2018-04-26T04:30:27.691Z,16.10
2018-04-26T04:32:53.871Z,16.10
2018-04-26T04:35:20.144Z,15.90
2018-04-26T04:37:47.005Z,15.50
2018-04-26T04:40:13.202Z,15.40
2018-04-26T04:42:39.375Z,15.40
2018-04-26T04:45:05.635Z,15.40
2018-04-26T04:47:31.862Z,13.70
2018-04-26T04:49:58.779Z,15.50
2018-04-26T04:52:24.997Z,15.40
2018-04-26T04:54:51.197Z,15.30
2018-04-26T04:57:17.370Z,14.90
2018-04-26T04:59:43.544Z,15.50
2018-04-26T05:02:10.511Z,15.30
2018-04-26T05:04:36.743Z,15.30
2018-04-26T05:07:03.035Z,15.20
2018-04-26T05:09:29.994Z,15.40
2018-04-26T05:11:56.194Z,15.40
2018-04-26T05:14:22.427Z,15.30
2018-04-26T05:16:48.609Z,15.40
2018-04-26T05:19:15.593Z,15.30
2018-04-26T05:21:41.927Z,15.20
2018-04-26T05:24:08.144Z,14.90
2018-04-26T05:26:34.347Z,15.10
2018-04-26T05:29:00.535Z,15.20
2018-04-26T05:31:26.735Z,14.80
2018-04-26T05:33:52.908Z,15.00
2018-04-26T05:36:19.091Z,15.00
2018-04-26T05:38:46.107Z,15.30
2018-04-26T05:41:12.305Z,15.30
2018-04-26T05:43:39.247Z,15.40
2018-04-26T05:46:05.485Z,15.10
2018-04-26T05:48:31.646Z,15.30
2018-04-26T05:50:58.528Z,15.10
2018-04-26T05:53:24.746Z,14.90
2018-04-26T05:55:50.948Z,14.80
2018-04-26T05:58:17.160Z,15.10
2018-04-26T06:00:43.747Z,15.30
2018-04-26T06:03:10.264Z,15.30
2018-04-26T06:05:36.506Z,15.20
2018-04-26T06:08:02.783Z,15.40
2018-04-26T06:10:29.006Z,15.30
2018-04-26T06:12:55.249Z,12.20
2018-04-26T06:15:21.534Z,15.50
2018-04-26T06:17:47.774Z,15.60
2018-04-26T06:20:14.088Z,15.50
2018-04-26T06:22:40.367Z,15.50
2018-04-26T06:25:06.702Z,15.40
2018-04-26T06:27:32.833Z,15.60
2018-04-26T06:29:59.093Z,15.50
2018-04-26T06:32:25.292Z,16.10
2018-04-26T06:34:51.511Z,15.40
2018-04-26T06:37:17.690Z,15.80
2018-04-26T06:39:43.895Z,16.20
2018-04-26T06:42:10.120Z,16.10
2018-04-26T06:44:36.405Z,16.20
2018-04-26T06:47:02.915Z,16.50
2018-04-26T06:49:29.153Z,16.60
2018-04-26T06:51:55.375Z,16.60
2018-04-26T06:54:21.602Z,16.60
2018-04-26T06:56:47.805Z,16.70
2018-04-26T06:59:14.406Z,13.90
2018-04-26T07:01:40.703Z,14.60
2018-04-26T07:04:06.944Z,16.70
2018-04-26T07:06:33.160Z,16.90
2018-04-26T07:08:59.375Z,16.60
2018-04-26T07:11:25.613Z,16.80
2018-04-26T07:13:51.874Z,16.80
2018-04-26T07:16:18.130Z,17.00
2018-04-26T07:18:44.323Z,17.00
2018-04-26T07:21:10.548Z,17.30
2018-04-26T07:23:36.807Z,17.30
2018-04-26T07:26:03.018Z,17.20
2018-04-26T07:28:29.977Z,17.40
2018-04-26T07:37:38.535Z,17.60
2018-04-26T07:40:04.699Z,17.30
2018-04-26T07:42:30.892Z,17.00
2018-04-26T07:44:57.071Z,17.10
2018-04-26T07:47:23.234Z,17.10
2018-04-26T07:49:49.397Z,16.80
2018-04-26T07:52:15.564Z,17.10
2018-04-26T07:54:41.746Z,17.30
2018-04-26T07:57:07.904Z,17.40
2018-04-26T07:59:34.058Z,17.40
2018-04-26T08:02:00.255Z,17.60
2018-04-26T08:04:26.439Z,17.70
2018-04-26T08:06:52.611Z,18.20
2018-04-26T08:09:18.828Z,18.60
2018-04-26T08:11:45.077Z,19.10
2018-04-26T08:14:11.230Z,19.20
2018-04-26T08:16:37.453Z,19.20
2018-04-26T08:19:04.420Z,16.40
2018-04-26T08:21:31.342Z,18.40
2018-04-26T08:23:57.575Z,18.40
2018-04-26T08:26:23.811Z,18.50
2018-04-26T08:28:50.078Z,16.10
2018-04-26T08:31:16.275Z,18.70
2018-04-26T08:33:42.441Z,15.90
2018-04-26T08:36:08.664Z,18.70
2018-04-26T08:38:34.953Z,18.40
2018-04-26T08:41:01.445Z,18.90
2018-04-26T08:43:28.418Z,19.00
2018-04-26T08:45:54.612Z,18.90
2018-04-26T08:48:20.814Z,20.20
2018-04-26T08:50:46.983Z,15.80
2018-04-26T08:56:06.552Z,17.90
2018-04-26T08:58:32.789Z,17.50
2018-04-26T09:00:59.000Z,17.30
2018-04-26T09:03:25.228Z,17.10
2018-04-26T09:05:51.486Z,17.20
2018-04-26T09:08:17.789Z,17.10
2018-04-26T09:10:44.030Z,17.20
2018-04-26T09:13:10.259Z,17.60
2018-04-26T09:15:36.524Z,17.80
2018-04-26T09:18:02.659Z,17.70
2018-04-26T09:20:28.895Z,17.80
2018-04-26T09:22:55.118Z,17.80
2018-04-26T09:25:21.347Z,17.60
2018-04-26T09:27:47.548Z,17.70
2018-04-26T09:30:13.751Z,17.90
2018-04-26T09:32:39.972Z,17.90
2018-04-26T09:35:06.325Z,17.30
2018-04-26T09:37:32.550Z,17.30
2018-04-26T09:39:59.600Z,17.30
2018-04-26T09:42:25.831Z,17.40
2018-04-26T09:44:52.120Z,17.40
2018-04-26T09:47:18.253Z,17.40
2018-04-26T09:49:44.478Z,17.80
2018-04-26T09:52:11.398Z,18.10
2018-04-26T09:54:37.646Z,17.90
2018-04-26T09:57:03.863Z,18.20
2018-04-26T09:59:30.077Z,18.40
2018-04-26T10:02:02.130Z,18.60
2018-04-26T10:04:28.366Z,18.70
2018-04-26T10:06:58.529Z,18.90
2018-04-26T10:09:24.723Z,18.30
2018-04-26T10:11:50.937Z,19.30
2018-04-26T10:14:17.158Z,18.90
2018-04-26T10:16:50.407Z,16.70
2018-04-26T10:19:16.650Z,19.20
2018-04-26T10:21:42.850Z,16.80
2018-04-26T10:24:09.059Z,19.50
2018-04-26T10:26:35.247Z,19.70
2018-04-26T10:29:01.475Z,19.50
2018-04-26T10:31:27.677Z,19.80
2018-04-26T10:33:53.902Z,20.10
2018-04-26T10:36:20.116Z,20.10
2018-04-26T10:38:47.072Z,20.30
2018-04-26T10:41:13.338Z,20.30
2018-04-26T10:43:39.564Z,20.60
2018-04-26T10:46:05.862Z,18.40
2018-04-26T10:50:58.601Z,20.70
2018-04-26T10:53:24.791Z,20.70
2018-04-26T10:55:51.012Z,20.50
2018-04-26T10:58:17.183Z,20.60
2018-04-26T11:00:43.336Z,20.80
2018-04-26T11:03:09.527Z,21.20
2018-04-26T11:05:35.716Z,21.40
2018-04-26T11:08:02.648Z,21.70
2018-04-26T11:10:28.817Z,21.60
2018-04-26T11:12:55.013Z,21.50
2018-04-26T11:15:21.232Z,21.50
2018-04-26T11:17:47.479Z,21.80
2018-04-26T11:20:13.678Z,22.10
2018-04-26T11:22:39.868Z,21.50
2018-04-26T11:25:06.818Z,20.70
2018-04-26T11:27:32.995Z,20.80
2018-04-26T11:29:59.169Z,21.00
2018-04-26T11:32:25.384Z,21.30
2018-04-26T11:34:51.575Z,21.40
2018-04-26T11:37:17.805Z,21.90
2018-04-26T11:39:43.948Z,22.30
2018-04-26T11:42:10.148Z,22.30
2018-04-26T11:44:36.407Z,22.50
2018-04-26T11:47:02.573Z,22.60
2018-04-26T11:49:28.752Z,22.90
2018-04-26T11:51:54.936Z,22.80
2018-04-26T11:54:21.090Z,22.60
2018-04-26T11:56:47.258Z,22.60
2018-04-26T11:59:13.457Z,22.10
2018-04-26T12:01:39.703Z,21.90
2018-04-26T12:04:05.924Z,20.90
2018-04-26T12:06:32.103Z,20.40
2018-04-26T12:08:58.338Z,20.80
2018-04-26T12:11:24.542Z,21.20
2018-04-26T12:13:50.739Z,21.30
2018-04-26T12:16:16.946Z,19.20
2018-04-26T12:18:43.115Z,21.80
2018-04-26T12:21:09.349Z,22.40
2018-04-26T12:23:35.563Z,22.60
2018-04-26T12:26:01.764Z,23.30
2018-04-26T12:28:28.690Z,22.90
2018-04-26T12:30:54.855Z,22.90
2018-04-26T12:33:21.063Z,22.60
2018-04-26T12:35:47.955Z,23.90
2018-04-26T12:38:14.137Z,23.80
2018-04-26T12:40:40.294Z,24.00
2018-04-26T12:43:06.450Z,23.70
2018-04-26T12:45:32.657Z,23.70
2018-04-26T12:47:58.886Z,23.50
2018-04-26T12:50:25.088Z,23.50
2018-04-26T12:52:51.321Z,23.80
2018-04-26T12:55:17.490Z,24.00
2018-04-26T12:57:44.391Z,23.70
2018-04-26T13:00:10.592Z,23.70
2018-04-26T13:02:36.780Z,23.90
2018-04-26T13:05:02.981Z,24.10
2018-04-26T13:07:29.122Z,23.90
2018-04-26T13:09:55.314Z,23.60
2018-04-26T13:12:21.496Z,23.50
2018-04-26T13:14:47.679Z,23.30
2018-04-26T13:17:13.887Z,23.30
2018-04-26T13:19:40.100Z,23.60
2018-04-26T13:22:06.302Z,23.20
2018-04-26T13:24:32.480Z,23.20
2018-04-26T13:26:58.686Z,22.90
2018-04-26T13:29:24.886Z,22.80
2018-04-26T13:31:51.089Z,22.70
2018-04-26T13:34:17.272Z,22.70
2018-04-26T13:36:43.470Z,22.80
2018-04-26T13:39:09.642Z,23.00
2018-04-26T13:41:35.848Z,23.00
2018-04-26T13:44:02.022Z,22.80
2018-04-26T13:46:29.349Z,22.60
2018-04-26T13:49:02.603Z,22.90
2018-04-26T13:51:28.789Z,22.90
2018-04-26T13:53:54.942Z,22.50
2018-04-26T13:56:21.102Z,22.90
2018-04-26T13:58:47.312Z,22.80
2018-04-26T14:01:13.508Z,22.90
2018-04-26T14:03:39.690Z,23.00
2018-04-26T14:06:05.914Z,23.00
2018-04-26T14:08:32.084Z,23.10
2018-04-26T14:10:58.269Z,23.10
2018-04-26T14:13:24.443Z,23.00
2018-04-26T14:15:51.356Z,22.60
2018-04-26T14:18:17.542Z,20.20
2018-04-26T14:20:43.732Z,23.00
2018-04-26T14:23:10.852Z,23.30
2018-04-26T14:25:36.925Z,23.20
2018-04-26T14:28:03.838Z,23.20
2018-04-26T14:30:30.041Z,23.10
2018-04-26T14:32:56.226Z,23.20
2018-04-26T14:35:22.502Z,23.40
2018-04-26T14:37:48.779Z,23.30
2018-04-26T14:40:15.009Z,23.50
2018-04-26T14:42:41.211Z,23.50
2018-04-26T14:45:07.611Z,23.90
2018-04-26T14:47:33.830Z,23.70
2018-04-26T14:50:00.005Z,23.60
2018-04-26T14:52:26.178Z,23.70
2018-04-26T14:54:52.331Z,24.00
2018-04-26T14:57:18.489Z,23.60
2018-04-26T14:59:45.436Z,23.60
2018-04-26T15:02:12.358Z,23.60
2018-04-26T15:04:38.578Z,23.60
2018-04-26T15:07:05.342Z,23.20
2018-04-26T15:09:31.521Z,23.60
2018-04-26T15:11:57.735Z,23.60
2018-04-26T15:14:23.894Z,24.00
2018-04-26T15:16:50.283Z,23.90
2018-04-26T15:19:16.478Z,23.60
2018-04-26T15:21:42.657Z,24.00
2018-04-26T15:24:08.871Z,24.00
2018-04-26T15:26:35.031Z,23.80
2018-04-26T15:29:01.228Z,23.80
2018-04-26T15:31:27.386Z,23.90
2018-04-26T15:33:54.330Z,24.10
2018-04-26T15:36:21.999Z,24.20
2018-04-26T15:38:49.708Z,24.10
2018-04-26T15:41:15.854Z,24.00
2018-04-26T15:43:42.050Z,23.60
2018-04-26T15:46:08.241Z,24.00
2018-04-26T15:48:34.574Z,24.20
2018-04-26T15:51:00.742Z,24.30
2018-04-26T15:56:53.066Z,24.10
2018-04-26T15:59:37.698Z,24.10
2018-04-26T16:02:37.287Z,24.20
2018-04-26T16:05:27.043Z,22.10
2018-04-26T16:08:18.300Z,24.50
2018-04-26T16:11:09.087Z,25.80
2018-04-26T16:14:00.053Z,24.60
2018-04-26T16:16:49.782Z,24.40
2018-04-26T16:19:40.621Z,24.00
2018-04-26T16:22:34.932Z,24.10
2018-04-26T16:25:18.507Z,24.50
2018-04-26T16:27:58.097Z,24.60
2018-04-26T16:30:42.836Z,24.50
2018-04-26T16:33:27.520Z,24.60
2018-04-26T16:39:11.139Z,24.50
2018-04-26T16:41:38.076Z,24.50
2018-04-26T16:44:04.254Z,24.40
2018-04-26T16:46:30.505Z,24.40
2018-04-26T16:48:56.688Z,24.20
2018-04-26T16:51:22.880Z,24.30
2018-04-26T16:53:49.851Z,24.10
2018-04-26T16:56:16.129Z,23.80
2018-04-26T16:58:42.451Z,23.90
2018-04-26T17:01:09.373Z,24.00
2018-04-26T17:03:35.621Z,24.10
2018-04-26T17:06:03.479Z,23.60
2018-04-26T17:08:30.516Z,23.90
2018-04-26T17:10:56.791Z,23.80
2018-04-26T17:13:23.172Z,23.60
2018-04-26T17:15:49.449Z,23.80
2018-04-26T17:18:15.695Z,23.30
2018-04-26T17:20:42.671Z,23.60
2018-04-26T17:23:08.962Z,23.70
2018-04-26T17:25:36.076Z,23.90
2018-04-26T17:28:02.386Z,23.90
2018-04-26T17:30:28.620Z,23.70
2018-04-26T17:32:55.200Z,23.40
2018-04-26T17:35:21.509Z,23.20
2018-04-26T17:37:47.779Z,23.30
2018-04-26T17:40:14.178Z,23.20
2018-04-26T17:42:40.422Z,23.10
2018-04-26T17:45:07.225Z,23.40
2018-04-26T17:47:34.472Z,23.40
2018-04-26T17:50:01.464Z,22.90
2018-04-26T17:52:28.345Z,22.80
2018-04-26T17:54:54.641Z,22.90
2018-04-26T17:57:21.408Z,23.10
2018-04-26T17:59:48.192Z,23.30
2018-04-26T18:02:15.202Z,22.60
2018-04-26T18:04:41.488Z,22.60
2018-04-26T18:07:10.441Z,22.20
2018-04-26T18:09:37.073Z,22.20
2018-04-26T18:12:04.027Z,22.20
2018-04-26T18:14:30.304Z,22.30
2018-04-26T18:16:57.345Z,22.20
2018-04-26T18:19:23.627Z,22.20
2018-04-26T18:21:50.215Z,21.90
2018-04-26T18:24:16.593Z,21.70
2018-04-26T18:26:43.162Z,22.20
2018-04-26T18:29:10.488Z,22.00
2018-04-26T18:31:36.766Z,21.70
2018-04-26T18:34:04.563Z,21.50
2018-04-26T18:36:33.076Z,21.10
2018-04-26T18:39:00.199Z,20.70
2018-04-26T18:41:28.907Z,20.90
2018-04-26T18:43:55.316Z,20.90
2018-04-26T18:46:21.736Z,20.80
2018-04-26T18:48:48.649Z,20.60
2018-04-26T18:51:15.070Z,20.70
2018-04-26T18:53:46.789Z,20.00
2018-04-26T18:56:14.752Z,19.90
2018-04-26T18:58:41.083Z,20.00
2018-04-26T19:01:07.843Z,20.30
2018-04-26T19:03:34.917Z,20.30
2018-04-26T19:06:01.265Z,20.00
2018-04-26T19:08:27.531Z,20.20
2018-04-26T19:10:54.532Z,20.30
2018-04-26T19:13:20.820Z,20.20
2018-04-26T19:15:47.180Z,20.40
2018-04-26T19:18:13.458Z,20.10
2018-04-26T19:20:39.744Z,19.60
2018-04-26T19:23:06.710Z,19.80
2018-04-26T19:25:32.985Z,19.70
2018-04-26T19:27:59.283Z,19.80
2018-04-26T19:30:25.602Z,19.50
2018-04-26T19:35:44.058Z,19.10
2018-04-26T19:38:10.334Z,18.80
2018-04-26T19:40:36.632Z,18.80
2018-04-26T19:43:02.941Z,18.70
2018-04-26T19:45:29.199Z,18.60
2018-04-26T19:47:56.525Z,19.00
2018-04-26T19:50:22.885Z,18.80
2018-04-26T19:52:49.146Z,18.40
2018-04-26T19:55:15.634Z,18.40
2018-04-26T19:57:41.968Z,18.40
2018-04-26T20:00:08.183Z,18.70
2018-04-26T20:02:35.643Z,18.80
2018-04-26T20:05:03.492Z,19.20
2018-04-26T20:07:29.892Z,19.10
2018-04-26T20:09:56.211Z,19.10
2018-04-26T20:12:22.468Z,19.30
2018-04-26T20:14:48.702Z,19.30
2018-04-26T20:17:16.502Z,19.10
2018-04-26T20:19:42.884Z,19.10
2018-04-26T20:22:10.537Z,19.10
2018-04-26T20:24:36.930Z,18.80
2018-04-26T20:27:04.916Z,18.60
2018-04-26T20:29:31.368Z,18.90
2018-04-26T20:31:57.921Z,18.00
2018-04-26T20:34:26.176Z,17.80
2018-04-26T20:36:53.457Z,18.40
2018-04-26T20:39:21.019Z,15.90
2018-04-26T20:41:54.974Z,18.10
2018-04-26T20:44:39.835Z,18.30
2018-04-26T20:47:06.106Z,18.40
2018-04-26T20:49:32.496Z,18.00
2018-04-26T20:51:58.745Z,18.70
2018-04-26T20:54:27.510Z,18.60
2018-04-26T20:56:55.302Z,18.70
2018-04-26T20:59:21.506Z,18.90
2018-04-26T21:01:49.412Z,18.90
2018-04-26T21:04:18.726Z,18.20
2018-04-26T21:06:45.123Z,18.50
2018-04-26T21:09:11.476Z,18.00
2018-04-26T21:11:39.525Z,17.80
2018-04-26T21:14:06.603Z,17.80
2018-04-26T21:16:34.079Z,18.30
2018-04-26T21:19:00.466Z,18.10
2018-04-26T21:21:26.795Z,17.70
2018-04-26T21:23:53.127Z,17.50
2018-04-26T21:26:19.465Z,17.80
2018-04-26T21:28:46.636Z,17.60
2018-04-26T21:31:12.960Z,17.40
2018-04-26T21:33:39.396Z,17.60
2018-04-26T21:36:06.481Z,17.70
2018-04-26T21:38:32.817Z,17.60
2018-04-26T21:41:00.093Z,17.80
2018-04-26T21:43:27.209Z,17.90
2018-04-26T21:45:53.577Z,17.90
2018-04-26T21:48:20.654Z,17.90
2018-04-26T21:50:53.099Z,17.90
2018-04-26T21:53:25.811Z,17.70
2018-04-26T21:55:58.240Z,17.40
2018-04-26T21:58:30.920Z,18.00
2018-04-26T22:01:04.779Z,17.70
2018-04-26T22:03:38.054Z,17.30
2018-04-26T22:06:05.432Z,17.30
2018-04-26T22:08:31.831Z,17.70
2018-04-26T22:11:00.822Z,17.60
2018-04-26T22:13:27.153Z,17.60
2018-04-26T22:15:54.429Z,17.40
2018-04-26T22:18:21.800Z,17.00
2018-04-26T22:20:48.941Z,16.70
2018-04-26T22:23:15.260Z,16.50
2018-04-26T22:25:41.671Z,16.40
2018-04-26T22:28:09.897Z,17.40
2018-04-26T22:30:36.564Z,17.20
2018-04-26T22:33:02.910Z,16.50
2018-04-26T22:35:30.037Z,16.40
2018-04-26T22:37:57.317Z,16.40
2018-04-26T22:40:25.752Z,16.30
2018-04-26T22:42:53.834Z,16.40
2018-04-26T22:45:20.785Z,16.10
2018-04-26T22:47:49.830Z,16.40
2018-04-26T22:50:16.096Z,16.10
2018-04-26T22:52:43.455Z,16.30
2018-04-26T22:55:12.266Z,16.10
2018-04-26T22:57:40.002Z,16.60
2018-04-26T23:00:07.139Z,17.00
2018-04-26T23:02:33.436Z,16.90
2018-04-26T23:04:59.788Z,14.40
2018-04-26T23:07:26.931Z,17.20
2018-04-26T23:09:53.337Z,17.20
2018-04-26T23:12:21.630Z,16.70
2018-04-26T23:14:48.035Z,16.50
2018-04-26T23:17:14.357Z,16.90
2018-04-26T23:19:40.677Z,16.70
2018-04-26T23:22:07.044Z,16.70
2018-04-26T23:24:34.180Z,16.50
2018-04-26T23:27:00.487Z,16.50
2018-04-26T23:29:27.580Z,16.50
2018-04-26T23:31:54.738Z,16.40
2018-04-26T23:34:27.100Z,16.70
2018-04-26T23:36:54.260Z,16.90
2018-04-26T23:39:20.711Z,16.50
2018-04-26T23:41:48.057Z,16.90
2018-04-26T23:44:14.910Z,16.90
2018-04-26T23:46:46.301Z,16.60
2018-04-26T23:49:13.312Z,16.40
2018-04-26T23:51:40.523Z,15.50
2018-04-26T23:54:07.839Z,16.10
2018-04-26T23:56:34.247Z,16.40
2018-04-26T23:59:02.039Z,15.70
